Time;durP1;ratioP1;P1;durP2;ratioP2;P2;SDS_P1;SDS_P2;PMS_P1;PMS_P2;Temp;Humidity;BMP_temperature;BMP_pressure;BME280_temperature;BME280_humidity;BME280_pressure;Samples;Min_cycle;Max_cycle;Signal;HPM_P1;HPM_P2
2022/03/26 00:01:08;;;;;;;59.60;31.60;;;;;;;2.25;62.10;101741.23;1724626;83;21994;-81
2022/03/26 00:03:36;;;;;;;53.70;31.60;;;;;;;2.23;62.09;101745.08;1724267;82;20988;-82
2022/03/26 00:06:06;;;;;;;56.70;31.67;;;;;;;2.19;62.09;101743.69;1724770;82;21015;-81
2022/03/26 00:08:33;;;;;;;66.55;32.70;;;;;;;2.14;62.05;101738.44;1724577;83;21294;-81
2022/03/26 00:11:00;;;;;;;58.27;32.17;;;;;;;2.09;62.22;101740.49;1724616;83;21048;-81
2022/03/26 00:13:28;;;;;;;60.97;33.17;;;;;;;2.06;62.37;101743.89;1724346;83;21244;-81
2022/03/26 00:15:55;;;;;;;60.53;33.83;;;;;;;2.07;62.48;101751.22;1729974;82;21004;-81
2022/03/26 00:18:22;;;;;;;64.63;33.73;;;;;;;2.09;62.58;101745.66;1737998;82;21372;-81
2022/03/26 00:20:50;;;;;;;58.90;33.90;;;;;;;2.08;62.63;101741.31;1738254;82;21075;-81
2022/03/26 00:23:17;;;;;;;56.80;30.93;;;;;;;2.06;62.74;101738.72;1680327;85;21014;-80
2022/03/26 00:25:45;;;;;;;61.10;31.83;;;;;;;2.07;62.72;101746.91;1738206;82;21126;-82
2022/03/26 00:28:12;;;;;;;61.13;32.60;;;;;;;2.06;62.68;101738.72;1737893;82;20968;-82
2022/03/26 00:30:39;;;;;;;63.03;33.27;;;;;;;2.07;62.90;101738.29;1738176;82;21054;-81
2022/03/26 00:33:06;;;;;;;57.00;32.37;;;;;;;2.08;62.93;101737.44;1737882;81;21000;-81
2022/03/26 00:35:33;;;;;;;66.70;33.30;;;;;;;2.09;62.80;101726.27;1738162;81;21082;-81
2022/03/26 00:38:01;;;;;;;61.80;33.67;;;;;;;2.02;62.78;101726.55;1737972;81;21258;-81
2022/03/26 00:40:29;;;;;;;61.60;33.00;;;;;;;2.01;62.97;101723.53;1738200;81;21565;-81
2022/03/26 00:42:56;;;;;;;61.70;33.97;;;;;;;2.01;62.93;101727.41;1737986;82;20980;-81
2022/03/26 00:45:24;;;;;;;58.20;33.10;;;;;;;2.00;62.94;101726.54;1680513;85;21030;-81
2022/03/26 00:47:51;;;;;;;66.23;34.83;;;;;;;2.00;63.04;101725.25;1738010;81;21487;-79
2022/03/26 00:50:18;;;;;;;65.30;33.03;;;;;;;1.99;63.18;101725.20;1738252;81;21768;-82
2022/03/26 00:52:45;;;;;;;59.73;33.57;;;;;;;1.97;63.07;101721.73;1737830;82;21003;-81
2022/03/26 00:55:12;;;;;;;61.67;34.77;;;;;;;1.92;63.06;101721.64;1680216;85;21049;-82
2022/03/26 00:57:40;;;;;;;66.50;36.13;;;;;;;1.90;63.17;101718.57;1737971;82;21023;-82
2022/03/26 01:00:09;;;;;;;66.07;35.13;;;;;;;1.86;63.20;101715.06;1737895;82;21011;-80
2022/03/26 01:02:36;;;;;;;67.93;36.87;;;;;;;1.83;63.21;101712.81;1737874;82;22039;-81
2022/03/26 01:05:04;;;;;;;75.90;36.73;;;;;;;1.81;63.39;101715.81;1680203;85;20990;-80
2022/03/26 01:07:32;;;;;;;63.80;35.47;;;;;;;1.77;63.53;101715.76;1737827;82;21011;-81
2022/03/26 01:10:00;;;;;;;66.37;35.60;;;;;;;1.77;63.64;101709.69;1737957;81;21036;-72
2022/03/26 01:12:27;;;;;;;63.80;34.53;;;;;;;1.76;63.68;101707.95;1738011;82;21023;-72
2022/03/26 01:14:55;;;;;;;61.03;33.40;;;;;;;1.72;63.52;101714.78;1680168;85;21139;-72
2022/03/26 01:17:22;;;;;;;65.23;35.13;;;;;;;1.69;63.54;101709.95;1747307;82;21004;-81
2022/03/26 01:19:51;;;;;;;103.83;47.93;;;;;;;1.66;63.77;101713.34;1749231;82;21071;-72
2022/03/26 01:22:18;;;;;;;70.63;35.90;;;;;;;1.68;63.75;101708.22;1764129;81;20931;-72
2022/03/26 01:24:45;;;;;;;66.83;35.97;;;;;;;1.66;63.78;101711.19;1764298;81;21034;-79
2022/03/26 01:27:12;;;;;;;73.57;39.83;;;;;;;1.61;63.66;101707.63;1764074;81;21933;-72
2022/03/26 01:29:40;;;;;;;69.20;35.67;;;;;;;1.54;63.85;101706.64;1764301;81;20927;-72
2022/03/26 01:32:09;;;;;;;67.87;35.77;;;;;;;1.53;63.91;101714.82;1764068;81;20983;-72
2022/03/26 01:34:37;;;;;;;67.00;35.23;;;;;;;1.50;64.01;101706.14;1738219;82;21425;-72
2022/03/26 01:37:05;;;;;;;58.40;32.80;;;;;;;1.47;64.07;101701.78;1737905;81;20988;-72
2022/03/26 01:39:32;;;;;;;62.17;33.70;;;;;;;1.43;64.06;101701.25;1738225;81;21079;-72
2022/03/26 01:42:07;;;;;;;61.80;32.10;;;;;;;1.42;64.36;101696.93;1737900;81;21003;-72
2022/03/26 01:44:36;;;;;;;61.53;32.70;;;;;;;1.39;64.23;101700.74;1738224;81;20991;-71
2022/03/26 01:47:05;;;;;;;53.05;30.97;;;;;;;1.35;64.29;101701.50;1738079;82;20996;-72
2022/03/26 01:49:33;;;;;;;63.37;32.90;;;;;;;1.33;64.37;101696.71;1738134;81;20987;-72
2022/03/26 01:52:03;;;;;;;60.97;32.77;;;;;;;1.30;64.52;101696.25;1737953;82;21160;-72
2022/03/26 01:54:32;;;;;;;61.73;30.68;;;;;;;1.29;64.69;101701.37;1738279;82;20983;-72
2022/03/26 01:57:00;;;;;;;63.13;32.33;;;;;;;1.27;64.53;101686.25;1738199;82;21000;-72
2022/03/26 01:59:28;;;;;;;57.67;31.37;;;;;;;1.26;64.71;101693.14;1738212;81;21114;-72
2022/03/26 02:01:55;;;;;;;60.60;31.30;;;;;;;1.25;64.90;101691.41;1737852;82;21536;-72
2022/03/26 02:04:24;;;;;;;53.37;29.60;;;;;;;1.21;64.81;101692.16;1737911;82;21235;-72
2022/03/26 02:06:53;;;;;;;56.37;31.43;;;;;;;1.16;64.77;101689.89;1737909;81;20980;-71
2022/03/26 02:09:21;;;;;;;54.87;31.80;;;;;;;1.11;64.84;101693.69;1737831;82;20979;-72
2022/03/26 02:11:48;;;;;;;55.53;32.83;;;;;;;1.09;65.07;101683.73;1737888;81;20978;-71
2022/03/26 02:14:15;;;;;;;53.13;30.30;;;;;;;1.11;65.49;101683.78;1737799;82;21030;-72
2022/03/26 02:16:44;;;;;;;54.03;31.10;;;;;;;1.16;65.65;101672.23;1737715;82;21146;-72
2022/03/26 02:19:11;;;;;;;56.63;28.70;;;;;;;1.19;65.51;101681.34;1737739;82;21122;-72
2022/03/26 02:21:39;;;;;;;50.87;29.33;;;;;;;1.18;65.56;101679.61;1737856;82;21471;-72
2022/03/26 02:24:08;;;;;;;53.67;28.93;;;;;;;1.15;65.47;101684.71;1737827;82;21528;-72
2022/03/26 02:26:37;;;;;;;59.00;30.30;;;;;;;1.11;65.46;101685.06;1737877;81;21328;-71
2022/03/26 02:29:08;;;;;;;57.17;30.80;;;;;;;1.08;65.47;101681.09;1738041;82;22001;-72
2022/03/26 02:31:36;;;;;;;;;;;;;;;1.06;65.67;101675.92;1740594;82;21022;-71
2022/03/26 02:34:05;;;;;;;57.97;30.67;;;;;;;1.08;66.00;101679.81;1710408;83;20144;-71
2022/03/26 02:36:33;;;;;;;50.70;28.73;;;;;;;1.04;65.67;101674.14;1737895;82;21027;-72
2022/03/26 02:39:00;;;;;;;58.63;30.47;;;;;;;1.02;65.61;101676.67;1738145;82;20999;-71
2022/03/26 02:41:28;;;;;;;60.33;30.73;;;;;;;0.96;65.65;101670.09;1737824;82;21945;-72
2022/03/26 02:43:55;;;;;;;60.60;31.60;;;;;;;0.94;65.68;101669.17;1680332;85;21026;-71
2022/03/26 02:46:22;;;;;;;58.70;31.03;;;;;;;0.91;65.80;101674.69;1737789;82;21296;-71
2022/03/26 02:48:50;;;;;;;56.47;30.90;;;;;;;0.88;65.93;101670.33;1738508;82;21075;-72
2022/03/26 02:51:17;;;;;;;51.70;29.53;;;;;;;0.89;66.20;101672.09;1737855;81;21568;-71
2022/03/26 02:53:44;;;;;;;50.77;28.77;;;;;;;0.93;66.20;101667.86;1680228;85;21210;-72
2022/03/26 02:56:11;;;;;;;55.07;29.37;;;;;;;0.87;66.09;101664.30;1738110;81;21059;-72
2022/03/26 02:58:38;;;;;;;52.23;29.80;;;;;;;0.87;66.34;101663.01;1737883;82;21059;-72
2022/03/26 03:01:05;;;;;;;56.00;30.20;;;;;;;0.85;66.32;101663.38;1738209;82;21512;-72
2022/03/26 03:03:33;;;;;;;69.87;33.37;;;;;;;0.84;66.22;101662.08;1680152;85;21006;-72
2022/03/26 03:06:00;;;;;;;59.10;30.83;;;;;;;0.87;66.63;101666.88;1738071;82;21195;-71
2022/03/26 03:08:27;;;;;;;53.77;29.10;;;;;;;0.87;66.50;101657.84;1737812;81;21015;-72
2022/03/26 03:10:54;;;;;;;55.93;30.10;;;;;;;0.90;66.87;101662.21;1738171;82;20908;-72
2022/03/26 03:13:22;;;;;;;50.23;29.30;;;;;;;0.91;66.76;101661.36;1680199;85;21439;-71
2022/03/26 03:15:50;;;;;;;56.53;28.33;;;;;;;0.88;66.66;101662.16;1737890;82;21059;-71
2022/03/26 03:18:18;;;;;;;50.73;29.40;;;;;;;0.88;66.87;101657.42;1737793;81;21074;-72
2022/03/26 03:20:45;;;;;;;48.03;27.27;;;;;;;0.91;66.96;101654.91;1737751;82;20980;-73
2022/03/26 03:23:13;;;;;;;47.93;27.37;;;;;;;0.89;66.73;101658.77;1738120;82;21066;-71
2022/03/26 03:25:40;;;;;;;51.07;28.97;;;;;;;0.87;66.69;101658.27;1737870;81;20955;-71
2022/03/26 03:28:07;;;;;;;49.80;28.73;;;;;;;0.87;66.97;101656.98;1738231;82;21075;-77
2022/03/26 03:30:35;;;;;;;46.57;27.60;;;;;;;0.83;66.76;101653.47;1738117;81;21123;-71
2022/03/26 03:33:03;;;;;;;50.57;28.30;;;;;;;0.84;67.09;101650.03;1738317;81;21035;-71
2022/03/26 03:35:31;;;;;;;52.10;28.00;;;;;;;0.85;67.30;101647.03;1738073;82;21067;-72
2022/03/26 03:37:58;;;;;;;50.87;28.83;;;;;;;0.86;67.16;101641.05;1738232;82;21004;-71
2022/03/26 03:40:25;;;;;;;43.97;26.33;;;;;;;0.83;67.24;101644.44;1738083;81;21070;-72
2022/03/26 03:42:54;;;;;;;47.97;26.73;;;;;;;0.81;67.09;101640.94;1738196;82;21118;-71
2022/03/26 03:45:22;;;;;;;44.17;25.83;;;;;;;0.79;67.03;101644.31;1737968;81;21011;-72
2022/03/26 03:47:49;;;;;;;53.40;27.73;;;;;;;0.78;67.03;101642.59;1738336;81;21571;-72
2022/03/26 03:50:16;;;;;;;49.73;27.57;;;;;;;0.78;67.24;101644.74;1738018;81;21067;-71
2022/03/26 03:52:43;;;;;;;44.40;26.63;;;;;;;0.75;67.31;101647.65;1738063;82;21008;-71
2022/03/26 03:55:11;;;;;;;47.77;28.03;;;;;;;0.75;67.44;101638.61;1738101;81;21123;-72
2022/03/26 03:57:43;;;;;;;50.40;29.07;;;;;;;0.75;67.47;101642.09;1738153;82;20988;-71
2022/03/26 04:00:13;;;;;;;46.83;26.60;;;;;;;0.76;67.82;101641.67;1725220;82;20995;-72
2022/03/26 04:02:41;;;;;;;48.30;28.47;;;;;;;0.79;67.70;101641.31;1738505;81;21811;-72
2022/03/26 04:05:09;;;;;;;48.60;27.53;;;;;;;0.76;67.75;101632.64;1738203;82;21019;-71
2022/03/26 04:07:38;;;;;;;53.43;29.53;;;;;;;0.73;67.42;101633.44;1737870;82;21962;-71
2022/03/26 04:10:07;;;;;;;52.40;28.23;;;;;;;0.75;68.05;101629.19;1738159;81;21031;-72
2022/03/26 04:12:38;;;;;;;49.70;28.07;;;;;;;0.76;67.83;101631.34;1737932;81;21023;-72
2022/03/26 04:15:08;;;;;;;45.15;26.55;;;;;;;0.77;67.92;101632.66;1738304;81;21495;-71
2022/03/26 04:17:35;;;;;;;53.38;27.87;;;;;;;0.78;68.12;101627.09;1737992;81;21011;-71
2022/03/26 04:20:08;;;;;;;51.23;27.87;;;;;;;0.79;68.13;101627.55;1738141;82;21917;-71
2022/03/26 04:22:39;;;;;;;48.57;27.40;;;;;;;0.78;68.05;101625.81;1738008;81;21023;-77
2022/03/26 04:25:08;;;;;;;47.50;27.30;;;;;;;0.76;68.18;101626.19;1738182;82;21007;-71
2022/03/26 04:27:36;;;;;;;48.73;25.90;;;;;;;0.78;68.47;101632.27;1738025;81;21022;-71
2022/03/26 04:30:04;;;;;;;45.00;26.60;;;;;;;0.76;68.13;101624.47;1680678;85;21046;-71
2022/03/26 04:32:32;;;;;;;47.60;26.37;;;;;;;0.72;67.93;101630.41;1737904;82;21132;-71
2022/03/26 04:34:59;;;;;;;48.73;25.83;;;;;;;0.69;68.10;101626.87;1738232;82;21547;-72
2022/03/26 04:37:28;;;;;;;49.73;27.37;;;;;;;0.64;68.26;101627.65;1737955;82;20996;-71
2022/03/26 04:39:55;;;;;;;47.10;26.07;;;;;;;0.65;68.28;101629.38;1738097;81;21015;-71
2022/03/26 04:42:22;;;;;;;43.80;25.20;;;;;;;0.64;68.26;101630.23;1737955;81;20984;-72
2022/03/26 04:44:49;;;;;;;44.67;25.93;;;;;;;0.61;68.39;101633.13;1680395;85;21799;-72
2022/03/26 04:47:16;;;;;;;42.13;25.37;;;;;;;0.59;68.31;101632.25;1738021;81;21564;-82
2022/03/26 04:49:43;;;;;;;41.07;24.80;;;;;;;0.57;68.39;101636.07;1737853;82;21015;-71
2022/03/26 04:52:11;;;;;;;42.83;25.70;;;;;;;0.57;68.59;101636.49;1738000;81;21008;-71
2022/03/26 04:54:38;;;;;;;46.13;26.77;;;;;;;0.58;68.66;101635.25;1737953;82;21003;-71
2022/03/26 04:57:06;;;;;;;44.87;24.40;;;;;;;0.57;68.75;101636.07;1737971;82;21137;-71
2022/03/26 04:59:33;;;;;;;39.17;24.37;;;;;;;0.59;68.81;101636.12;1737941;82;21003;-71
2022/03/26 05:02:00;;;;;;;42.57;24.57;;;;;;;0.58;68.87;101637.84;1737684;82;21000;-72
2022/03/26 05:04:27;;;;;;;43.67;25.77;;;;;;;0.58;68.79;101635.64;1680565;85;21034;-72
2022/03/26 05:06:54;;;;;;;47.97;25.07;;;;;;;0.56;68.84;101642.08;1737894;82;21504;-71
2022/03/26 05:09:21;;;;;;;45.80;24.70;;;;;;;0.53;68.88;101636.84;1724538;82;21950;-72
2022/03/26 05:11:48;;;;;;;43.27;25.60;;;;;;;0.53;68.84;101641.14;1727702;82;21048;-72
2022/03/26 05:14:16;;;;;;;48.47;25.43;;;;;;;0.51;68.84;101635.06;1731263;82;21587;-72
2022/03/26 05:16:44;;;;;;;44.80;25.17;;;;;;;0.50;69.16;101634.20;1730276;82;21571;-72
2022/03/26 05:19:11;;;;;;;46.07;25.67;;;;;;;0.52;69.14;101632.92;1721723;83;21043;-72
2022/03/26 05:21:38;;;;;;;50.87;25.90;;;;;;;0.53;69.30;101636.84;1721786;83;21150;-73
2022/03/26 05:24:06;;;;;;;41.60;24.77;;;;;;;0.55;69.39;101625.26;1720758;83;21095;-73
2022/03/26 05:26:33;;;;;;;46.33;26.73;;;;;;;0.57;69.54;101624.45;1721803;83;21034;-72
2022/03/26 05:29:00;;;;;;;51.13;25.97;;;;;;;0.60;69.73;101623.23;1723569;83;21063;-72
2022/03/26 05:31:28;;;;;;;44.30;26.33;;;;;;;0.62;69.72;101620.28;1724680;83;21064;-76
2022/03/26 05:33:55;;;;;;;43.67;26.93;;;;;;;0.64;69.74;101623.78;1724348;82;21183;-73
2022/03/26 05:36:22;;;;;;;43.40;27.23;;;;;;;0.73;70.40;101624.83;1724172;83;20996;-76
2022/03/26 05:38:49;;;;;;;47.10;28.03;;;;;;;0.82;70.70;101616.86;1724557;82;21020;-73
2022/03/26 05:41:16;;;;;;;52.00;29.23;;;;;;;0.97;71.32;101616.34;1702848;83;21064;-72
2022/03/26 05:43:43;;;;;;;51.70;28.20;;;;;;;1.15;71.69;101614.98;1692949;84;21107;-72
2022/03/26 05:46:13;;;;;;;51.73;28.13;;;;;;;1.32;71.83;101608.45;1722794;83;49769;-72
2022/03/26 05:48:40;;;;;;;54.30;28.60;;;;;;;1.47;71.98;101610.06;1725048;83;22123;-72
2022/03/26 05:51:07;;;;;;;54.60;29.30;;;;;;;1.66;72.16;101609.96;1664884;86;21014;-72
2022/03/26 05:53:35;;;;;;;49.03;28.67;;;;;;;1.87;72.47;101611.22;1694259;84;21099;-72
2022/03/26 05:56:03;;;;;;;56.33;27.70;;;;;;;2.12;72.48;101607.34;1690781;84;21689;-72
2022/03/26 05:58:29;;;;;;;61.93;28.60;;;;;;;2.43;73.01;101606.13;1723172;82;21949;-72
2022/03/26 06:00:57;;;;;;;45.40;24.10;;;;;;;2.97;73.66;101597.42;1721510;83;21015;-73
2022/03/26 06:03:24;;;;;;;45.00;23.37;;;;;;;3.47;73.83;101603.66;1721699;83;21023;-72
2022/03/26 06:05:51;;;;;;;48.50;22.53;;;;;;;4.15;73.77;101609.52;1721718;83;21028;-72
2022/03/26 06:08:19;;;;;;;38.37;20.80;;;;;;;4.72;73.23;101604.33;1721978;83;21007;-72
2022/03/26 06:10:46;;;;;;;42.50;21.07;;;;;;;5.28;72.60;101599.84;1721557;83;21088;-72
2022/03/26 06:13:12;;;;;;;43.07;21.50;;;;;;;5.78;71.82;101604.32;1721938;83;21038;-73
2022/03/26 06:15:40;;;;;;;44.00;22.83;;;;;;;6.27;71.12;101598.34;1721621;83;21031;-74
2022/03/26 06:18:07;;;;;;;39.57;22.03;;;;;;;6.68;70.44;101597.00;1722449;82;21051;-75
2022/03/26 06:20:35;;;;;;;46.30;23.27;;;;;;;7.06;69.68;101601.67;1723553;83;21481;-73
2022/03/26 06:23:02;;;;;;;37.10;22.30;;;;;;;7.38;68.98;101604.16;1723204;83;21941;-72
2022/03/26 06:25:30;;;;;;;37.83;21.00;;;;;;;7.62;68.31;101600.98;1702165;83;21040;-83
2022/03/26 06:27:57;;;;;;;38.27;22.07;;;;;;;7.82;67.74;101601.75;1719042;83;21059;-73
2022/03/26 06:30:24;;;;;;;43.00;23.07;;;;;;;8.01;67.16;101607.72;1664864;86;21015;-73
2022/03/26 06:32:52;;;;;;;35.50;21.30;;;;;;;8.15;66.55;101601.09;1689574;84;21183;-73
2022/03/26 06:35:20;;;;;;;39.10;21.23;;;;;;;8.27;66.22;101600.53;1688559;85;21243;-75
2022/03/26 06:37:46;;;;;;;39.03;20.33;;;;;;;8.47;65.83;101594.30;1672333;85;21544;-73
2022/03/26 06:40:13;;;;;;;37.70;19.30;;;;;;;8.62;65.34;101595.47;1668232;86;21051;-73
2022/03/26 06:42:41;;;;;;;36.90;20.77;;;;;;;8.78;64.98;101598.77;1668189;86;21100;-74
2022/03/26 06:45:08;;;;;;;37.73;19.90;;;;;;;8.94;64.61;101593.81;1668223;86;21043;-74
2022/03/26 06:47:35;;;;;;;33.87;20.77;;;;;;;9.08;64.01;101592.80;1668125;86;21151;-76
2022/03/26 06:50:02;;;;;;;37.87;22.00;;;;;;;9.22;63.57;101602.64;1668105;86;20989;-74
2022/03/26 06:52:29;;;;;;;41.57;22.00;;;;;;;9.31;62.97;101605.16;1668209;86;21524;-73
2022/03/26 06:54:56;;;;;;;40.43;21.23;;;;;;;9.39;62.55;101603.73;1668161;86;21073;-73
2022/03/26 06:57:23;;;;;;;36.03;21.50;;;;;;;9.45;62.17;101598.45;1668237;86;21399;-73
2022/03/26 06:59:50;;;;;;;34.57;19.93;;;;;;;9.50;61.97;101603.15;1668696;84;21142;-81
2022/03/26 07:02:17;;;;;;;40.77;22.20;;;;;;;9.57;61.73;101609.19;1669766;86;21024;-74
2022/03/26 07:04:44;;;;;;;38.10;20.57;;;;;;;9.64;61.50;101625.66;1669754;86;20929;-73
2022/03/26 07:07:14;;;;;;;38.87;23.30;;;;;;;9.70;61.10;101612.48;1669399;84;21020;-72
2022/03/26 07:09:41;;;;;;;38.08;22.85;;;;;;;9.74;60.82;101618.11;1669936;86;21593;-72
2022/03/26 07:12:10;;;;;;;41.10;22.67;;;;;;;9.77;60.56;101613.69;1669178;85;21203;-72
2022/03/26 07:14:37;;;;;;;40.27;22.57;;;;;;;9.83;60.36;101617.97;1668193;86;21032;-72
2022/03/26 07:17:05;;;;;;;37.20;22.97;;;;;;;9.86;60.08;101617.92;1668256;85;21012;-72
2022/03/26 07:19:32;;;;;;;36.33;23.33;;;;;;;9.86;59.87;101623.16;1707642;83;21052;-73
2022/03/26 07:21:59;;;;;;;42.10;22.93;;;;;;;9.84;59.62;101622.34;1713379;83;21020;-76
2022/03/26 07:24:26;;;;;;;38.57;23.27;;;;;;;9.86;59.58;101625.78;1713418;83;21220;-75
2022/03/26 07:26:53;;;;;;;39.13;23.57;;;;;;;9.83;59.35;101620.14;1713209;83;21016;-74
2022/03/26 07:29:20;;;;;;;44.13;25.43;;;;;;;9.83;59.28;101621.90;1713425;83;21020;-75
2022/03/26 07:31:47;;;;;;;46.73;26.00;;;;;;;9.81;58.96;101622.39;1713401;83;21031;-74
2022/03/26 07:34:15;;;;;;;39.27;25.33;;;;;;;9.79;58.97;101617.61;1713377;83;21019;-74
2022/03/26 07:36:43;;;;;;;40.57;26.40;;;;;;;9.77;58.92;101620.23;1713270;83;21145;-74
2022/03/26 07:39:10;;;;;;;46.07;26.50;;;;;;;9.80;58.90;101612.78;1713207;83;20981;-73
2022/03/26 07:41:37;;;;;;;41.97;27.03;;;;;;;9.84;58.79;101607.94;1713275;83;21031;-74
2022/03/26 07:44:05;;;;;;;45.03;27.37;;;;;;;9.87;58.76;101605.72;1713270;83;21603;-73
2022/03/26 07:46:32;;;;;;;40.83;26.60;;;;;;;9.89;58.61;101605.23;1713468;83;22256;-75
2022/03/26 07:48:59;;;;;;;44.23;27.13;;;;;;;9.94;58.71;101595.56;1713310;83;21134;-75
2022/03/26 07:51:26;;;;;;;43.20;25.10;;;;;;;10.01;58.52;101599.37;1713570;83;21593;-75
2022/03/26 07:53:53;;;;;;;42.20;25.67;;;;;;;10.06;58.43;101596.70;1713289;83;21032;-75
2022/03/26 07:56:20;;;;;;;45.33;26.13;;;;;;;10.12;58.43;101592.66;1713342;83;21012;-75
2022/03/26 07:58:49;;;;;;;41.73;24.77;;;;;;;10.21;58.36;101596.43;1713498;83;21359;-75
2022/03/26 08:01:16;;;;;;;38.70;24.33;;;;;;;10.27;58.31;101593.73;1713293;83;21178;-75
2022/03/26 08:03:43;;;;;;;42.43;26.93;;;;;;;10.38;58.29;101596.63;1713502;83;20996;-75
2022/03/26 08:06:10;;;;;;;36.80;23.03;;;;;;;10.46;58.38;101595.60;1713269;83;21570;-75
2022/03/26 08:08:40;;;;;;;35.57;23.53;;;;;;;10.59;58.34;101604.58;1713479;83;21035;-74
2022/03/26 08:11:06;;;;;;;32.43;21.77;;;;;;;10.71;58.25;101593.86;1713555;83;21082;-72
2022/03/26 08:13:33;;;;;;;31.17;20.97;;;;;;;10.82;58.17;101587.96;1713426;83;21753;-72
2022/03/26 08:16:01;;;;;;;30.97;22.00;;;;;;;10.93;58.19;101591.69;1713633;83;21028;-73
2022/03/26 08:18:29;;;;;;;32.30;20.47;;;;;;;11.04;58.07;101579.23;1713246;82;21027;-73
2022/03/26 08:20:57;;;;;;;34.40;21.63;;;;;;;11.16;58.12;101569.78;1713300;83;21001;-74
2022/03/26 08:23:24;;;;;;;28.07;18.77;;;;;;;11.29;57.92;101567.77;1713284;83;21000;-77
2022/03/26 08:28:37;;;;;;;29.73;19.10;;;;;;;11.43;57.49;101560.91;1714807;83;21022;-75
2022/03/26 08:31:06;;;;;;;27.73;18.50;;;;;;;11.53;57.51;101561.59;1714805;83;21044;-74
2022/03/26 08:33:33;;;;;;;25.83;18.13;;;;;;;11.63;57.27;101556.52;1714877;83;21030;-74
2022/03/26 08:36:00;;;;;;;25.87;17.87;;;;;;;11.72;57.32;101561.58;1713945;83;21535;-74
2022/03/26 08:38:28;;;;;;;22.53;16.73;;;;;;;11.88;57.12;101558.61;1714771;83;21975;-74
2022/03/26 08:40:55;;;;;;;24.37;15.47;;;;;;;11.97;56.88;101572.41;1714830;83;21075;-74
2022/03/26 08:43:23;;;;;;;25.40;16.65;;;;;;;12.10;56.93;101565.06;1714864;83;21019;-74
2022/03/26 08:45:50;;;;;;;24.10;16.93;;;;;;;12.28;56.86;101559.81;1714619;83;21505;-74
2022/03/26 08:48:17;;;;;;;22.48;16.95;;;;;;;12.44;56.58;101553.26;1714732;83;21111;-74
2022/03/26 08:50:44;;;;;;;23.18;16.35;;;;;;;12.57;56.07;101551.14;1714718;83;21179;-77
2022/03/26 08:53:11;;;;;;;27.73;16.40;;;;;;;12.68;56.00;101540.34;1714782;83;21078;-74
2022/03/26 08:55:38;;;;;;;25.82;16.57;;;;;;;12.78;55.45;101553.66;1714846;83;21027;-74
2022/03/26 08:58:09;;;;;;;19.20;13.53;;;;;;;12.86;55.21;101545.55;1715073;83;21043;-74
2022/03/26 09:00:37;;;;;;;20.82;13.62;;;;;;;12.97;54.86;101551.38;1714794;83;21011;-74
2022/03/26 09:03:06;;;;;;;21.40;14.10;;;;;;;13.08;54.78;101541.40;1715085;83;21916;-74
2022/03/26 09:05:35;;;;;;;20.17;12.75;;;;;;;13.23;54.64;101545.34;1714787;83;20943;-74
2022/03/26 09:08:03;;;;;;;22.10;14.05;;;;;;;13.40;54.40;101547.48;1714804;83;21279;-74
2022/03/26 09:10:33;;;;;;;18.90;12.60;;;;;;;13.55;54.16;101548.35;1714801;83;21461;-74
2022/03/26 09:13:02;;;;;;;16.12;12.33;;;;;;;13.71;53.67;101546.53;1714760;83;21027;-75
2022/03/26 09:15:29;;;;;;;16.17;11.63;;;;;;;13.80;53.41;101551.08;1714821;83;21922;-74
2022/03/26 09:17:59;;;;;;;18.05;10.85;;;;;;;13.93;53.20;101559.89;1714650;83;21015;-74
2022/03/26 09:20:27;;;;;;;15.43;11.80;;;;;;;14.00;52.69;101553.05;1724647;82;21014;-74
2022/03/26 09:22:55;;;;;;;16.80;11.48;;;;;;;14.10;52.64;101543.52;1708923;84;21094;-77
2022/03/26 09:25:23;;;;;;;20.68;12.95;;;;;;;14.17;52.19;101545.90;1758418;81;21023;-77
2022/03/26 09:27:51;;;;;;;18.35;12.43;;;;;;;14.27;52.30;101540.73;1758349;81;21132;-75
2022/03/26 09:30:19;;;;;;;18.87;12.70;;;;;;;14.43;52.32;101549.41;1758320;81;21567;-74
2022/03/26 09:32:46;;;;;;;15.98;12.28;;;;;;;14.56;51.94;101530.10;1758397;81;21007;-74
2022/03/26 09:35:14;;;;;;;19.15;12.18;;;;;;;14.67;51.46;101539.34;1758299;81;21007;-74
2022/03/26 09:37:43;;;;;;;16.25;11.75;;;;;;;14.68;51.18;101538.42;1758390;81;21227;-74
2022/03/26 09:40:11;;;;;;;17.98;12.40;;;;;;;14.73;50.89;101536.48;1758318;81;21127;-75
2022/03/26 09:42:40;;;;;;;17.10;13.00;;;;;;;14.81;50.37;101536.21;1758501;81;21003;-74
2022/03/26 09:45:09;;;;;;;18.23;12.70;;;;;;;14.86;50.42;101534.27;1758291;81;21026;-74
2022/03/26 09:47:37;;;;;;;20.13;13.40;;;;;;;15.00;50.68;101536.86;1758859;81;21518;-74
2022/03/26 09:50:08;;;;;;;19.57;12.70;;;;;;;15.10;50.09;101536.90;1758277;81;21335;-74
2022/03/26 09:52:37;;;;;;;22.22;13.60;;;;;;;15.14;50.03;101538.05;1758615;81;21196;-74
2022/03/26 09:55:07;;;;;;;16.12;12.63;;;;;;;15.25;49.95;101534.16;1758176;81;21026;-74
2022/03/26 09:57:34;;;;;;;20.08;12.65;;;;;;;15.38;49.56;101525.70;1758418;81;20988;-77
2022/03/26 10:00:03;;;;;;;16.52;11.70;;;;;;;15.45;49.14;101528.09;1758644;81;20983;-74
2022/03/26 10:02:32;;;;;;;13.38;11.33;;;;;;;15.51;49.07;101523.41;1758736;81;21536;-74
2022/03/26 10:05:00;;;;;;;16.65;11.18;;;;;;;15.66;49.07;101521.95;1758389;81;21137;-74
2022/03/26 10:07:29;;;;;;;15.10;10.32;;;;;;;15.84;49.16;101525.19;1734606;81;21113;-74
2022/03/26 10:09:57;;;;;;;13.58;9.90;;;;;;;16.10;48.66;101523.27;1758725;81;22090;-77
2022/03/26 10:12:28;;;;;;;12.90;8.83;;;;;;;16.13;47.98;101519.59;1758342;81;21603;-74
2022/03/26 10:14:58;;;;;;;11.85;9.65;;;;;;;16.14;47.72;101511.61;1758570;81;21022;-74
2022/03/26 10:17:34;;;;;;;;;;;;;;;16.31;47.61;101509.56;1760973;81;22110;-74
2022/03/26 10:20:11;;;;;;;12.98;9.98;;;;;;;16.55;46.90;101539.88;1756285;81;20130;-75
2022/03/26 10:22:50;;;;;;;13.80;9.90;;;;;;;16.55;46.90;101539.88;1755465;81;21018;-75
2022/03/26 10:25:23;;;;;;;13.70;9.50;;;;;;;16.46;46.34;101511.56;1755542;81;20976;-75
2022/03/26 10:27:56;;;;;;;12.90;8.53;;;;;;;16.70;46.45;101502.11;1755396;81;21031;-74
2022/03/26 10:33:32;;;;;;;11.93;8.53;;;;;;;16.79;45.75;101506.16;1755417;81;22035;-74
2022/03/26 10:36:02;;;;;;;10.13;7.55;;;;;;;16.91;45.45;101505.63;1754700;81;20992;-74
2022/03/26 10:38:38;;;;;;;14.38;7.50;;;;;;;17.00;45.40;101497.24;1755307;81;21054;-73
2022/03/26 10:41:08;;;;;;;10.15;7.78;;;;;;;17.08;44.74;101503.05;1755286;81;21035;-74
2022/03/26 10:43:37;;;;;;;14.28;8.43;;;;;;;17.18;44.33;101495.51;1755294;81;21289;-73
2022/03/26 10:46:05;;;;;;;11.63;7.55;;;;;;;17.13;43.69;101499.72;1755627;81;21031;-74
2022/03/26 10:48:37;;;;;;;12.90;7.83;;;;;;;17.13;43.64;101500.19;1755266;81;21042;-74
2022/03/26 10:51:19;;;;;;;11.10;7.65;;;;;;;17.14;42.79;101508.52;1755489;81;21548;-74
2022/03/26 10:53:54;;;;;;;12.58;7.92;;;;;;;17.29;43.57;101493.67;1754329;81;21007;-73
2022/03/26 10:56:22;;;;;;;12.37;8.30;;;;;;;17.86;43.13;101492.28;1755548;81;21181;-74
2022/03/26 10:58:49;;;;;;;14.73;7.92;;;;;;;18.07;42.36;101489.88;1755210;81;21054;-74
2022/03/26 11:01:20;;;;;;;11.48;7.87;;;;;;;18.06;42.35;101492.97;1755549;81;20999;-76
2022/03/26 11:03:48;;;;;;;10.45;8.13;;;;;;;18.09;41.65;101498.59;1755383;81;21461;-74
2022/03/26 11:06:17;;;;;;;10.60;8.25;;;;;;;18.20;41.62;101496.25;1755635;81;21507;-74
2022/03/26 11:08:47;;;;;;;11.60;7.65;;;;;;;18.25;41.70;101503.50;1755585;81;21130;-78
2022/03/26 11:11:14;;;;;;;;;;;;;;;18.44;41.62;101478.67;1758147;81;21040;-74
2022/03/26 11:13:51;;;;;;;9.75;6.97;;;;;;;18.41;40.96;101485.47;1755282;81;20418;-74
2022/03/26 11:16:42;;;;;;;12.35;8.45;;;;;;;18.34;41.25;101491.55;1755720;81;21027;-73
2022/03/26 11:19:33;;;;;;;9.40;8.15;;;;;;;18.20;40.39;101489.61;1755300;81;21103;-74
2022/03/26 11:22:27;;;;;;;12.23;9.88;;;;;;;18.16;40.46;101493.85;1755431;81;21827;-74
2022/03/26 11:25:30;;;;;;;12.68;7.72;;;;;;;18.23;40.54;101477.98;1755271;81;21011;-74
2022/03/26 11:28:29;;;;;;;11.20;7.97;;;;;;;18.16;40.72;101471.30;1753074;81;21078;-73